createdAt,value
2023-08-16T00:01:07.162Z,100907.80
2023-08-16T00:06:15.257Z,100911.00
2023-08-16T00:11:21.095Z,100921.20
2023-08-16T00:16:27.163Z,100923.80
2023-08-16T00:21:33.803Z,100924.00
2023-08-16T00:26:36.852Z,100918.80
2023-08-16T00:31:43.695Z,100927.40
2023-08-16T00:36:46.364Z,100929.60
2023-08-16T00:41:49.480Z,100922.60
2023-08-16T00:46:52.453Z,100926.40
2023-08-16T00:51:55.183Z,100919.20
2023-08-16T00:57:01.892Z,100920.20
2023-08-16T01:02:05.006Z,100920.80
2023-08-16T01:07:08.496Z,100920.20
2023-08-16T01:12:42.254Z,100918.60
2023-08-16T01:17:46.785Z,100912.60
2023-08-16T01:23:08.330Z,100914.80
2023-08-16T01:28:13.193Z,100913.40
2023-08-16T01:33:16.201Z,100913.60
2023-08-16T01:38:43.466Z,100908.80
2023-08-16T01:43:49.005Z,100921.20
2023-08-16T01:48:57.833Z,100910.20
2023-08-16T01:54:01.841Z,100908.20
2023-08-16T01:59:04.981Z,100907.60
2023-08-16T02:04:07.794Z,100907.80
2023-08-16T02:09:10.803Z,100909.20
2023-08-16T02:14:13.450Z,100913.60
2023-08-16T02:19:20.607Z,100911.00
2023-08-16T02:24:25.835Z,100913.60
2023-08-16T02:29:34.549Z,100918.80
2023-08-16T02:34:37.498Z,100912.00
2023-08-16T02:39:40.280Z,100910.20
2023-08-16T02:44:44.409Z,100907.80
2023-08-16T02:49:47.769Z,100913.20
2023-08-16T02:54:50.635Z,100913.40
2023-08-16T02:59:55.202Z,100914.00
2023-08-16T03:04:57.966Z,100914.80
2023-08-16T03:10:00.752Z,100921.40
2023-08-16T03:15:03.691Z,100915.60
2023-08-16T03:20:10.737Z,100912.00
2023-08-16T03:25:21.524Z,100916.60
2023-08-16T03:30:24.600Z,100910.60
2023-08-16T03:35:27.471Z,100913.40
2023-08-16T03:40:32.394Z,100909.60
2023-08-16T03:45:43.150Z,100904.60
2023-08-16T03:50:46.021Z,100901.60
2023-08-16T03:55:58.577Z,100897.40
2023-08-16T04:01:03.752Z,100897.60
2023-08-16T04:06:16.642Z,100898.20
2023-08-16T04:11:20.496Z,100892.20
2023-08-16T04:16:25.075Z,100889.60
2023-08-16T04:21:33.373Z,100886.00
2023-08-16T04:26:36.142Z,100876.00
2023-08-16T04:31:40.337Z,100877.00
2023-08-16T04:36:43.191Z,100865.60
2023-08-16T04:41:48.327Z,100863.60
2023-08-16T04:46:51.260Z,100861.80
2023-08-16T04:51:54.662Z,100860.00
2023-08-16T04:56:57.451Z,100856.60
2023-08-16T05:02:05.194Z,100860.20
2023-08-16T05:07:08.026Z,100857.40
2023-08-16T05:12:14.411Z,100860.00
2023-08-16T05:17:17.265Z,100864.20
2023-08-16T05:22:28.097Z,100873.20
2023-08-16T05:27:31.135Z,100872.80
2023-08-16T05:32:36.814Z,100868.80
2023-08-16T05:37:39.606Z,100869.20
2023-08-16T05:42:43.863Z,100872.20
2023-08-16T05:47:48.497Z,100863.20
2023-08-16T05:52:51.272Z,100862.20
2023-08-16T05:58:08.294Z,100864.40
2023-08-16T06:03:11.201Z,100864.80
2023-08-16T06:08:14.139Z,100866.80
2023-08-16T06:13:16.785Z,100859.60
2023-08-16T06:18:21.586Z,100859.60
2023-08-16T06:23:32.499Z,100859.00
2023-08-16T06:28:35.142Z,100859.60
2023-08-16T06:33:40.744Z,100863.80
2023-08-16T06:38:45.989Z,100860.80
2023-08-16T06:43:49.110Z,100861.20
2023-08-16T06:48:56.862Z,100864.20
2023-08-16T06:54:00.849Z,100869.40
2023-08-16T06:59:03.866Z,100869.40
2023-08-16T07:04:06.803Z,100868.20
2023-08-16T07:09:10.438Z,100869.20
2023-08-16T07:14:15.588Z,100872.60
2023-08-16T07:19:18.944Z,100870.80
2023-08-16T07:24:21.636Z,100869.40
2023-08-16T07:29:25.437Z,100869.20
2023-08-16T07:34:30.636Z,100876.40
2023-08-16T07:39:34.162Z,100877.20
2023-08-16T07:44:37.987Z,100877.60
2023-08-16T07:49:43.672Z,100882.60
2023-08-16T07:54:46.412Z,100893.80
2023-08-16T07:59:49.588Z,100890.80
2023-08-16T08:04:52.743Z,100899.20
2023-08-16T08:09:59.812Z,100901.60
2023-08-16T08:15:08.938Z,100908.40
2023-08-16T08:20:15.420Z,100913.80
2023-08-16T08:25:21.891Z,100918.20
2023-08-16T08:30:24.874Z,100927.60
2023-08-16T08:35:32.134Z,100928.80
2023-08-16T08:40:36.855Z,100940.40
2023-08-16T08:45:41.349Z,100940.00
2023-08-16T08:50:46.214Z,100941.20
2023-08-16T08:55:53.936Z,100942.20
2023-08-16T09:01:09.849Z,100937.60
2023-08-16T09:11:39.615Z,100939.00
2023-08-16T09:16:56.146Z,100943.40
2023-08-16T09:22:00.337Z,100946.20
2023-08-16T09:27:04.551Z,100935.60
2023-08-16T09:32:16.798Z,100934.20
2023-08-16T09:37:23.028Z,100931.20
2023-08-16T09:42:38.899Z,100927.60
2023-08-16T09:52:56.898Z,100930.40
2023-08-16T09:58:04.947Z,100932.00
2023-08-16T10:03:10.007Z,100944.80
2023-08-16T10:08:22.359Z,100930.60
2023-08-16T10:13:25.457Z,100931.40
2023-08-16T10:18:29.375Z,100924.40
2023-08-16T10:23:32.415Z,100927.20
2023-08-16T10:28:38.399Z,100925.80
2023-08-16T10:33:52.510Z,100924.20
2023-08-16T10:38:59.448Z,100927.00
2023-08-16T10:44:06.908Z,100937.40
2023-08-16T10:49:11.150Z,100933.60
2023-08-16T10:54:17.078Z,100938.40
2023-08-16T10:59:22.157Z,100941.40
2023-08-16T11:04:38.115Z,100939.00
2023-08-16T11:09:41.086Z,100946.00
2023-08-16T11:14:47.130Z,100941.00
2023-08-16T11:19:52.041Z,100930.80
2023-08-16T11:24:57.729Z,100942.20
2023-08-16T11:30:05.912Z,100936.00
2023-08-16T11:35:13.024Z,100940.80
2023-08-16T11:40:21.313Z,100938.00
2023-08-16T11:45:33.154Z,100929.80
2023-08-16T11:50:37.449Z,100930.40
2023-08-16T11:55:41.117Z,100935.60
2023-08-16T12:00:52.162Z,100931.60
2023-08-16T12:07:02.468Z,100923.40
2023-08-16T12:13:18.301Z,100915.60
2023-08-16T12:19:27.404Z,100912.60
2023-08-16T12:24:45.871Z,100921.20
2023-08-16T12:36:07.083Z,100913.20
2023-08-16T12:56:04.699Z,100910.80
2023-08-16T13:01:41.763Z,100907.00
2023-08-16T13:20:26.599Z,100901.80
2023-08-16T13:35:50.570Z,100902.00
2023-08-16T13:40:53.794Z,100909.80
2023-08-16T13:45:55.452Z,100909.40
2023-08-16T13:50:57.096Z,100914.20
2023-08-16T13:56:04.605Z,100919.20
2023-08-16T14:01:09.522Z,100919.40
2023-08-16T14:06:12.248Z,100920.40
2023-08-16T14:11:14.838Z,100915.00
2023-08-16T14:16:16.875Z,100912.60
2023-08-16T14:21:19.700Z,100911.40
2023-08-16T14:26:21.707Z,100914.20
2023-08-16T14:31:27.000Z,100912.60
2023-08-16T14:47:09.154Z,100898.80
2023-08-16T14:52:20.048Z,100903.20
2023-08-16T14:57:22.828Z,100901.40
2023-08-16T15:02:29.375Z,100901.80
2023-08-16T15:07:32.347Z,100903.60
2023-08-16T15:12:36.704Z,100899.80
2023-08-16T15:17:39.613Z,100902.60
2023-08-16T15:22:42.270Z,100904.40
2023-08-16T15:27:48.076Z,100905.40
2023-08-16T15:32:54.360Z,100906.80
2023-08-16T15:37:57.173Z,100912.20
2023-08-16T15:43:01.005Z,100917.80
2023-08-16T15:48:07.280Z,100927.60
2023-08-16T15:53:11.813Z,100925.60
2023-08-16T15:58:14.447Z,100937.00
2023-08-16T16:03:17.167Z,100944.40
2023-08-16T16:08:23.938Z,100963.00
2023-08-16T16:13:27.308Z,100972.40
2023-08-16T16:18:30.052Z,100982.60
2023-08-16T16:23:33.268Z,100988.80
2023-08-16T16:28:36.401Z,100998.40
2023-08-16T16:33:39.096Z,100999.00
2023-08-16T16:38:47.148Z,101006.40
2023-08-16T16:43:50.073Z,101007.80
2023-08-16T16:48:52.805Z,101014.60
2023-08-16T16:53:55.564Z,101016.40
2023-08-16T16:59:00.562Z,101023.60
2023-08-16T17:04:06.683Z,101026.20
2023-08-16T17:09:12.099Z,101028.20
2023-08-16T17:14:18.571Z,101036.00
2023-08-16T17:19:22.805Z,101044.00
2023-08-16T17:24:25.754Z,101049.00
2023-08-16T17:29:31.243Z,101051.40
2023-08-16T17:34:38.742Z,101052.40
2023-08-16T17:39:49.071Z,101051.80
2023-08-16T17:44:53.737Z,101057.00
2023-08-16T17:49:58.977Z,101069.20
2023-08-16T17:55:02.099Z,101086.20
2023-08-16T18:00:12.821Z,101093.20
2023-08-16T18:05:18.230Z,101090.20
2023-08-16T18:10:22.301Z,101105.00
2023-08-16T18:15:25.252Z,101121.60
2023-08-16T18:20:28.122Z,101134.60
2023-08-16T18:25:31.192Z,101149.60
2023-08-16T18:30:33.980Z,101145.40
2023-08-16T18:35:36.692Z,101157.20
2023-08-16T18:40:40.079Z,101158.60
2023-08-16T18:45:47.914Z,101171.00
2023-08-16T18:50:53.002Z,101176.80
2023-08-16T18:55:56.930Z,101170.80
2023-08-16T19:00:59.791Z,101176.20
2023-08-16T19:06:03.983Z,101180.60
2023-08-16T19:11:07.893Z,101189.20
2023-08-16T19:16:10.724Z,101196.80
2023-08-16T19:21:13.949Z,101206.00
2023-08-16T19:26:16.812Z,101208.20
2023-08-16T19:31:24.952Z,101215.20
2023-08-16T19:36:27.672Z,101223.60
2023-08-16T19:41:30.466Z,101222.80
2023-08-16T19:46:35.974Z,101219.80
2023-08-16T19:51:42.334Z,101221.20
2023-08-16T19:56:45.283Z,101215.00
2023-08-16T20:01:48.205Z,101219.80
2023-08-16T20:06:51.336Z,101222.00
2023-08-16T20:11:54.758Z,101225.00
2023-08-16T20:16:57.622Z,101221.60
2023-08-16T20:22:00.347Z,101223.80
2023-08-16T20:27:03.765Z,101229.80
2023-08-16T20:32:38.082Z,101240.00
2023-08-16T20:37:34.890Z,101234.80
2023-08-16T20:42:42.460Z,101239.00
2023-08-16T20:47:45.723Z,101243.60
2023-08-16T20:52:48.881Z,101240.00
2023-08-16T20:57:51.588Z,101237.60
2023-08-16T21:02:54.490Z,101240.00
2023-08-16T21:07:59.655Z,101240.00
2023-08-16T21:13:06.014Z,101239.40
2023-08-16T21:18:08.930Z,101241.80
2023-08-16T21:23:12.934Z,101250.80
2023-08-16T21:28:20.654Z,101243.40
2023-08-16T21:33:25.511Z,101238.80
2023-08-16T21:38:30.781Z,101231.20
2023-08-16T21:43:33.592Z,101235.60
2023-08-16T21:48:36.361Z,101225.60
2023-08-16T21:53:39.708Z,101222.00
2023-08-16T21:58:49.113Z,101220.60
2023-08-16T22:04:17.109Z,101218.80
2023-08-16T22:09:22.001Z,101220.60
2023-08-16T22:14:26.045Z,101218.20
2023-08-16T22:19:29.090Z,101219.40
2023-08-16T22:24:32.117Z,101225.40
2023-08-16T22:29:34.789Z,101237.00
2023-08-16T22:34:39.323Z,101231.60
2023-08-16T22:39:42.027Z,101224.40
2023-08-16T22:44:46.868Z,101216.80
2023-08-16T22:49:51.837Z,101225.40
2023-08-16T22:54:56.645Z,101228.60
2023-08-16T22:59:59.368Z,101226.40
2023-08-16T23:05:11.361Z,101217.20
2023-08-16T23:10:15.831Z,101219.80
2023-08-16T23:15:18.744Z,101212.60
2023-08-16T23:20:22.122Z,101221.20
2023-08-16T23:25:29.541Z,101213.80
2023-08-16T23:30:32.674Z,101209.20
2023-08-16T23:35:35.732Z,101205.40
2023-08-16T23:40:40.495Z,101206.00
2023-08-16T23:45:45.693Z,101220.80
2023-08-16T23:50:50.408Z,101228.60
2023-08-16T23:55:53.094Z,101227.00
